createdAt,value
2018-12-22T00:00:14.199Z,0.00
2018-12-22T00:01:14.155Z,0.00
2018-12-22T00:02:14.147Z,0.00
2018-12-22T00:03:14.136Z,0.00
2018-12-22T00:04:14.123Z,0.00
2018-12-22T00:05:14.135Z,0.00
2018-12-22T00:06:14.104Z,0.00
2018-12-22T00:07:14.090Z,0.00
2018-12-22T00:08:14.076Z,0.00
2018-12-22T00:09:14.070Z,0.00
2018-12-22T00:10:14.080Z,0.00
2018-12-22T00:11:14.055Z,0.00
2018-12-22T00:12:14.035Z,0.00
2018-12-22T00:13:14.017Z,0.00
2018-12-22T00:14:14.011Z,0.00
2018-12-22T00:15:14.020Z,0.00
2018-12-22T00:16:13.990Z,0.00
2018-12-22T00:17:13.987Z,0.00
2018-12-22T00:18:13.978Z,0.00
2018-12-22T00:19:13.987Z,0.00
2018-12-22T00:20:13.946Z,0.00
2018-12-22T00:21:13.958Z,0.00
2018-12-22T00:22:13.928Z,0.00
2018-12-22T00:23:13.920Z,0.00
2018-12-22T00:24:13.899Z,0.00
2018-12-22T00:25:13.891Z,0.00
2018-12-22T00:26:14.291Z,0.00
2018-12-22T00:27:13.885Z,0.00
2018-12-22T00:28:21.986Z,0.00
2018-12-22T00:29:14.847Z,0.00
2018-12-22T00:30:13.835Z,0.00
2018-12-22T00:31:13.839Z,0.00
2018-12-22T00:32:13.808Z,0.00
2018-12-22T00:33:15.750Z,0.00
2018-12-22T00:34:13.784Z,0.00
2018-12-22T00:35:13.781Z,0.00
2018-12-22T00:36:13.793Z,0.00
2018-12-22T00:37:13.760Z,0.00
2018-12-22T00:38:13.750Z,0.00
2018-12-22T00:39:13.739Z,0.00
2018-12-22T00:40:13.772Z,0.00
2018-12-22T00:41:13.738Z,0.00
2018-12-22T00:42:13.706Z,0.00
2018-12-22T00:43:13.685Z,0.00
2018-12-22T00:44:13.678Z,0.00
2018-12-22T00:45:13.665Z,0.00
2018-12-22T00:46:13.683Z,0.00
2018-12-22T00:47:13.647Z,0.00
2018-12-22T00:48:13.641Z,0.00
2018-12-22T00:49:13.619Z,0.00
2018-12-22T00:50:13.615Z,0.00
2018-12-22T00:51:13.633Z,0.00
2018-12-22T00:52:13.672Z,0.00
2018-12-22T00:53:13.576Z,0.00
2018-12-22T00:54:13.573Z,0.00
2018-12-22T00:55:13.556Z,0.00
2018-12-22T00:56:13.576Z,0.00
2018-12-22T00:57:13.534Z,0.00
2018-12-22T00:58:13.519Z,0.00
2018-12-22T00:59:13.509Z,0.00
2018-12-22T01:00:13.808Z,0.00
2018-12-22T01:01:13.518Z,0.00
2018-12-22T01:02:13.480Z,0.00
2018-12-22T01:03:13.465Z,0.00
2018-12-22T01:04:13.455Z,0.00
2018-12-22T01:05:13.444Z,0.00
2018-12-22T01:06:13.451Z,0.00
2018-12-22T01:07:13.416Z,0.00
2018-12-22T01:08:13.412Z,0.00
2018-12-22T01:09:13.397Z,0.00
2018-12-22T01:10:13.385Z,0.00
2018-12-22T01:11:13.410Z,0.00
2018-12-22T01:12:13.372Z,0.00
2018-12-22T01:13:13.352Z,0.00
2018-12-22T01:14:13.344Z,0.00
2018-12-22T01:15:13.329Z,0.00
2018-12-22T01:16:13.325Z,0.00
2018-12-22T01:17:13.343Z,0.00
2018-12-22T01:18:13.297Z,0.00
2018-12-22T01:19:13.288Z,0.00
2018-12-22T01:20:13.277Z,0.00
2018-12-22T01:21:13.264Z,0.00
2018-12-22T01:22:13.285Z,0.00
2018-12-22T01:23:13.246Z,0.00
2018-12-22T01:24:13.231Z,0.00
2018-12-22T01:25:13.221Z,0.00
2018-12-22T01:26:13.209Z,0.00
2018-12-22T01:27:13.228Z,0.00
2018-12-22T01:28:13.186Z,0.00
2018-12-22T01:29:13.175Z,0.00
2018-12-22T01:30:13.169Z,0.00
2018-12-22T01:31:13.149Z,0.00
2018-12-22T01:32:13.161Z,0.00
2018-12-22T01:33:13.130Z,0.00
2018-12-22T01:34:13.119Z,0.00
2018-12-22T01:35:13.174Z,0.00
2018-12-22T01:36:13.099Z,0.00
2018-12-22T01:37:13.106Z,0.00
2018-12-22T01:38:13.075Z,0.00
2018-12-22T01:39:13.063Z,0.00
2018-12-22T01:40:13.051Z,0.00
2018-12-22T01:41:13.045Z,0.00
2018-12-22T01:42:13.034Z,0.00
2018-12-22T01:43:13.014Z,0.00
2018-12-22T01:44:13.012Z,0.00
2018-12-22T01:45:12.995Z,0.00
2018-12-22T01:46:13.070Z,0.00
2018-12-22T01:47:12.992Z,0.00
2018-12-22T01:48:12.963Z,0.00
2018-12-22T01:49:13.061Z,0.00
2018-12-22T01:50:12.941Z,0.00
2018-12-22T01:51:12.937Z,0.00
2018-12-22T01:52:12.920Z,0.00
2018-12-22T01:53:12.920Z,0.00
2018-12-22T01:54:12.898Z,0.00
2018-12-22T01:55:12.887Z,0.00
2018-12-22T01:56:12.876Z,0.00
2018-12-22T01:57:12.860Z,0.00
2018-12-22T01:58:12.867Z,0.00
2018-12-22T01:59:12.847Z,0.00
2018-12-22T02:00:12.824Z,0.00
2018-12-22T02:01:12.818Z,0.00
2018-12-22T02:02:12.804Z,0.00
2018-12-22T02:03:12.810Z,0.00
2018-12-22T02:04:12.782Z,0.00
2018-12-22T02:05:12.781Z,0.00
2018-12-22T02:06:12.762Z,0.00
2018-12-22T02:07:12.852Z,0.00
2018-12-22T02:08:12.761Z,0.00
2018-12-22T02:09:12.726Z,0.00
2018-12-22T02:10:12.715Z,0.00
2018-12-22T02:11:12.727Z,0.00
2018-12-22T02:12:12.699Z,0.00
2018-12-22T02:13:12.720Z,0.00
2018-12-22T02:14:12.673Z,0.00
2018-12-22T02:15:12.655Z,0.00
2018-12-22T02:16:12.649Z,0.00
2018-12-22T02:17:12.640Z,0.00
2018-12-22T02:18:12.645Z,0.00
2018-12-22T02:19:13.521Z,0.00
2018-12-22T02:20:12.600Z,0.00
2018-12-22T02:21:12.592Z,0.00
2018-12-22T02:22:12.584Z,0.00
2018-12-22T02:23:12.594Z,0.00
2018-12-22T02:24:12.557Z,0.00
2018-12-22T02:25:12.547Z,0.00
2018-12-22T02:26:12.535Z,0.00
2018-12-22T02:27:12.521Z,0.00
2018-12-22T02:28:12.611Z,0.00
2018-12-22T02:29:12.509Z,0.00
2018-12-22T02:30:12.490Z,0.00
2018-12-22T02:31:12.474Z,0.00
2018-12-22T02:32:12.477Z,0.00
2018-12-22T02:33:12.468Z,0.00
2018-12-22T02:34:12.448Z,0.00
2018-12-22T02:35:12.434Z,0.00
2018-12-22T02:36:12.421Z,0.00
2018-12-22T02:37:12.422Z,0.00
2018-12-22T02:38:12.442Z,0.00
2018-12-22T02:39:12.387Z,0.00
2018-12-22T02:40:12.385Z,0.00
2018-12-22T02:41:12.375Z,0.00
2018-12-22T02:42:12.351Z,0.00
2018-12-22T02:43:12.342Z,0.00
2018-12-22T02:44:12.353Z,0.00
2018-12-22T02:45:12.323Z,0.00
2018-12-22T02:46:12.319Z,0.00
2018-12-22T02:47:12.296Z,0.00
2018-12-22T02:48:12.281Z,0.00
2018-12-22T02:49:12.294Z,0.00
2018-12-22T02:50:12.259Z,0.00
2018-12-22T02:51:12.428Z,0.00
2018-12-22T02:52:12.245Z,0.00
2018-12-22T02:53:12.237Z,0.00
2018-12-22T02:54:12.230Z,0.00
2018-12-22T02:55:12.335Z,0.00
2018-12-22T02:56:12.199Z,0.00
2018-12-22T02:57:12.184Z,0.00
2018-12-22T02:58:12.176Z,0.00
2018-12-22T02:59:12.182Z,0.00
2018-12-22T03:00:12.162Z,0.00
2018-12-22T03:01:12.142Z,0.00
2018-12-22T03:02:12.131Z,0.00
2018-12-22T03:03:12.127Z,0.00
2018-12-22T03:04:12.118Z,0.00
2018-12-22T03:05:12.095Z,0.00
2018-12-22T03:06:12.088Z,0.00
2018-12-22T03:07:12.066Z,0.00
2018-12-22T03:08:12.066Z,0.00
2018-12-22T03:09:12.074Z,0.00
2018-12-22T03:10:12.046Z,0.00
2018-12-22T03:11:12.028Z,0.00
2018-12-22T03:12:12.023Z,0.00
2018-12-22T03:13:12.003Z,0.00
2018-12-22T03:14:12.012Z,0.00
2018-12-22T03:15:11.991Z,0.00
2018-12-22T03:16:11.974Z,0.00
2018-12-22T03:17:11.959Z,0.00
2018-12-22T03:18:11.949Z,0.00
2018-12-22T03:19:11.963Z,0.00
2018-12-22T03:20:11.929Z,0.00
2018-12-22T03:21:11.911Z,0.00
2018-12-22T03:22:11.903Z,0.00
2018-12-22T03:23:11.893Z,0.00
2018-12-22T03:24:11.881Z,0.00
2018-12-22T03:25:11.889Z,0.00
2018-12-22T03:26:11.856Z,0.00
2018-12-22T03:27:11.851Z,0.00
2018-12-22T03:28:11.850Z,0.00
2018-12-22T03:29:15.802Z,0.00
2018-12-22T03:30:11.836Z,0.00
2018-12-22T03:31:11.802Z,0.00
2018-12-22T03:32:11.791Z,0.00
2018-12-22T03:33:11.863Z,0.00
2018-12-22T03:34:11.772Z,0.00
2018-12-22T03:35:11.770Z,0.00
2018-12-22T03:36:11.746Z,0.00
2018-12-22T03:37:11.844Z,0.00
2018-12-22T03:38:11.723Z,0.00
2018-12-22T03:39:11.712Z,0.00
2018-12-22T03:40:11.722Z,0.00
2018-12-22T03:41:11.689Z,0.00
2018-12-22T03:42:11.679Z,0.00
2018-12-22T03:43:11.670Z,0.00
2018-12-22T03:44:11.662Z,0.00
2018-12-22T03:45:11.737Z,0.00
2018-12-22T03:46:11.634Z,0.00
2018-12-22T03:47:11.621Z,0.00
2018-12-22T03:48:11.653Z,0.00
2018-12-22T03:49:11.600Z,0.00
2018-12-22T03:50:11.600Z,0.00
2018-12-22T03:51:11.582Z,0.00
2018-12-22T03:52:11.564Z,0.00
2018-12-22T03:53:11.560Z,0.00
2018-12-22T03:54:11.547Z,0.00
2018-12-22T03:55:11.609Z,0.00
2018-12-22T03:56:11.514Z,0.00
2018-12-22T03:57:11.506Z,0.00
2018-12-22T03:58:11.498Z,0.00
2018-12-22T03:59:11.484Z,0.00
2018-12-22T04:00:11.493Z,0.00
2018-12-22T04:01:11.468Z,0.00
2018-12-22T04:02:11.452Z,0.00
2018-12-22T04:03:12.035Z,0.00
2018-12-22T04:04:11.438Z,0.00
2018-12-22T04:05:11.440Z,0.00
2018-12-22T04:06:11.408Z,0.00
2018-12-22T04:07:11.394Z,0.00
2018-12-22T04:08:11.384Z,0.00
2018-12-22T04:09:11.376Z,0.00
2018-12-22T04:10:11.492Z,0.00
2018-12-22T04:11:11.345Z,0.00
2018-12-22T04:12:11.337Z,0.00
2018-12-22T04:13:11.321Z,0.00
2018-12-22T04:14:11.314Z,0.00
2018-12-22T04:15:11.319Z,0.00
2018-12-22T04:16:11.293Z,0.00
2018-12-22T04:17:11.273Z,0.00
2018-12-22T04:18:11.277Z,0.00
2018-12-22T04:19:11.255Z,0.00
2018-12-22T04:20:11.323Z,0.00
2018-12-22T04:21:11.241Z,0.00
2018-12-22T04:22:11.222Z,0.00
2018-12-22T04:23:11.217Z,0.00
2018-12-22T04:24:11.213Z,0.00
2018-12-22T04:25:11.194Z,0.00
2018-12-22T04:26:11.196Z,0.00
2018-12-22T04:27:11.161Z,0.00
2018-12-22T04:28:11.154Z,0.00
2018-12-22T04:29:11.144Z,0.00
2018-12-22T04:30:11.133Z,0.00
2018-12-22T04:31:11.127Z,0.00
2018-12-22T04:32:11.110Z,0.00
2018-12-22T04:33:11.108Z,0.00
2018-12-22T04:34:11.079Z,0.00
2018-12-22T04:35:11.078Z,0.00
2018-12-22T04:36:11.082Z,0.00
2018-12-22T04:37:11.053Z,0.00
2018-12-22T04:38:11.038Z,0.00
2018-12-22T04:39:11.025Z,0.00
2018-12-22T04:40:11.016Z,0.00
2018-12-22T04:41:11.024Z,0.00
2018-12-22T04:42:11.003Z,0.00
2018-12-22T04:43:10.982Z,0.00
2018-12-22T04:44:10.969Z,0.00
2018-12-22T04:45:10.957Z,0.00
2018-12-22T04:46:10.965Z,0.00
2018-12-22T04:47:10.933Z,0.00
2018-12-22T04:48:10.926Z,0.00
2018-12-22T04:49:10.914Z,0.00
2018-12-22T04:50:10.906Z,0.00
2018-12-22T04:51:10.913Z,0.00
2018-12-22T04:52:10.886Z,0.00
2018-12-22T04:53:10.874Z,0.00
2018-12-22T04:54:10.853Z,0.00
2018-12-22T04:55:10.856Z,0.00
2018-12-22T04:56:10.863Z,0.00
2018-12-22T04:57:10.821Z,0.00
2018-12-22T04:58:10.814Z,0.00
2018-12-22T04:59:10.815Z,0.00
2018-12-22T05:00:10.788Z,0.00
2018-12-22T05:01:10.795Z,0.00
2018-12-22T05:02:10.757Z,0.00
2018-12-22T05:03:10.822Z,0.00
2018-12-22T05:04:10.751Z,0.00
2018-12-22T05:05:10.733Z,0.00
2018-12-22T05:06:10.742Z,0.00
2018-12-22T05:07:10.708Z,0.00
2018-12-22T05:08:10.701Z,0.00
2018-12-22T05:09:10.696Z,0.00
2018-12-22T05:10:10.674Z,0.00
2018-12-22T05:11:10.663Z,0.00
2018-12-22T05:12:10.665Z,0.00
2018-12-22T05:13:10.647Z,0.00
2018-12-22T05:14:10.630Z,0.00
2018-12-22T05:15:10.638Z,0.00
2018-12-22T05:16:10.606Z,0.00
2018-12-22T05:17:10.613Z,0.00
2018-12-22T05:18:10.579Z,0.00
2018-12-22T05:19:10.572Z,0.00
2018-12-22T05:20:10.566Z,0.00
2018-12-22T05:21:10.546Z,0.00
2018-12-22T05:22:10.559Z,0.00
2018-12-22T05:23:10.523Z,0.00
2018-12-22T05:24:10.515Z,0.00
2018-12-22T05:25:10.499Z,0.00
2018-12-22T05:26:10.489Z,0.00
2018-12-22T05:27:10.507Z,0.00
2018-12-22T05:28:10.473Z,0.00
2018-12-22T05:29:10.458Z,0.00
2018-12-22T05:30:10.445Z,0.00
2018-12-22T05:31:10.437Z,0.00
2018-12-22T05:32:10.447Z,0.00
2018-12-22T05:33:10.419Z,0.00
2018-12-22T05:34:10.405Z,0.00
2018-12-22T05:35:10.386Z,0.00
2018-12-22T05:36:10.372Z,0.00
2018-12-22T05:37:10.385Z,0.00
2018-12-22T05:38:10.353Z,0.00
2018-12-22T05:39:10.342Z,0.00
2018-12-22T05:40:10.336Z,0.00
2018-12-22T05:41:10.314Z,0.00
2018-12-22T05:42:10.329Z,0.00
2018-12-22T05:43:10.297Z,0.00
2018-12-22T05:44:10.287Z,0.00
2018-12-22T05:45:10.281Z,0.00
2018-12-22T05:46:10.265Z,0.00
2018-12-22T05:47:10.259Z,0.00
2018-12-22T05:48:10.241Z,0.00
2018-12-22T05:49:10.231Z,0.00
2018-12-22T05:50:10.219Z,0.00
2018-12-22T05:51:10.203Z,0.00
2018-12-22T05:52:10.199Z,0.00
2018-12-22T05:53:10.201Z,0.00
2018-12-22T05:54:10.169Z,0.00
2018-12-22T05:55:10.157Z,0.00
2018-12-22T05:56:10.153Z,0.00
2018-12-22T05:57:10.133Z,0.00
2018-12-22T05:58:10.149Z,0.00
2018-12-22T05:59:10.129Z,0.00
2018-12-22T06:00:10.096Z,0.00
2018-12-22T06:01:10.095Z,0.00
2018-12-22T06:02:10.083Z,0.00
2018-12-22T06:03:10.085Z,0.00
2018-12-22T06:04:10.055Z,0.00
2018-12-22T06:05:10.043Z,0.00
2018-12-22T06:06:10.029Z,0.00
2018-12-22T06:07:10.013Z,0.00
2018-12-22T06:08:10.021Z,0.00
2018-12-22T06:09:09.993Z,0.00
2018-12-22T06:10:09.983Z,0.00
2018-12-22T06:11:09.984Z,0.00
2018-12-22T06:12:09.966Z,0.00
2018-12-22T06:13:09.999Z,0.00
2018-12-22T06:14:09.931Z,0.00
2018-12-22T06:15:09.929Z,0.00
2018-12-22T06:16:09.918Z,0.00
2018-12-22T06:17:09.903Z,0.00
2018-12-22T06:18:09.917Z,0.00
2018-12-22T06:19:09.882Z,0.00
2018-12-22T06:20:09.865Z,0.00
2018-12-22T06:21:09.859Z,0.00
2018-12-22T06:22:09.849Z,0.00
2018-12-22T06:23:09.852Z,0.00
2018-12-22T06:24:09.828Z,0.00
2018-12-22T06:25:09.812Z,0.00
2018-12-22T06:26:09.801Z,0.00
2018-12-22T06:27:09.788Z,0.00
2018-12-22T06:28:09.794Z,0.00
2018-12-22T06:29:09.769Z,0.00
2018-12-22T06:30:09.751Z,0.00
2018-12-22T06:31:09.740Z,0.00
2018-12-22T06:32:09.740Z,0.00
2018-12-22T06:33:09.737Z,0.00
2018-12-22T06:34:09.706Z,0.00
2018-12-22T06:35:09.693Z,0.00
2018-12-22T06:36:09.679Z,0.00
2018-12-22T06:37:09.675Z,0.00
2018-12-22T06:38:09.659Z,0.00
2018-12-22T06:39:09.666Z,0.00
2018-12-22T06:40:09.632Z,0.00
2018-12-22T06:41:09.628Z,0.00
2018-12-22T06:42:09.618Z,0.00
2018-12-22T06:43:09.600Z,0.00
2018-12-22T06:44:09.623Z,0.00
2018-12-22T06:45:09.582Z,0.00
2018-12-22T06:46:09.654Z,0.00
2018-12-22T06:47:09.556Z,0.00
2018-12-22T06:48:09.549Z,0.00
2018-12-22T06:49:09.544Z,0.00
2018-12-22T06:50:09.530Z,0.00
2018-12-22T06:51:09.512Z,0.00
2018-12-22T06:52:09.506Z,0.00
2018-12-22T06:53:09.490Z,0.00
2018-12-22T06:54:09.498Z,0.00
2018-12-22T06:55:09.468Z,0.00
2018-12-22T06:56:09.452Z,0.00
2018-12-22T06:57:09.440Z,0.00
2018-12-22T06:58:09.429Z,0.00
2018-12-22T06:59:09.445Z,0.00
2018-12-22T07:00:17.470Z,0.00
2018-12-22T07:01:10.399Z,4.00
2018-12-22T07:02:09.382Z,4.00
2018-12-22T07:03:09.374Z,0.00
2018-12-22T07:04:09.393Z,4.00
2018-12-22T07:05:09.351Z,4.00
2018-12-22T07:06:09.341Z,0.00
2018-12-22T07:07:09.328Z,4.00
2018-12-22T07:08:09.379Z,4.00
2018-12-22T07:09:09.324Z,4.00
2018-12-22T07:10:09.300Z,4.00
2018-12-22T07:11:09.278Z,4.00
2018-12-22T07:12:09.282Z,4.00
2018-12-22T07:13:09.252Z,4.00
2018-12-22T07:14:09.290Z,8.00
2018-12-22T07:15:09.238Z,12.00
2018-12-22T07:16:09.222Z,12.00
2018-12-22T07:17:09.217Z,20.00
2018-12-22T07:18:09.200Z,12.00
2018-12-22T07:19:09.210Z,12.00
2018-12-22T07:20:09.182Z,12.00
2018-12-22T07:21:09.178Z,16.00
2018-12-22T07:22:09.164Z,16.00
2018-12-22T07:23:09.145Z,16.00
2018-12-22T07:24:09.166Z,16.00
2018-12-22T07:25:09.121Z,16.00
2018-12-22T07:26:09.114Z,16.00
2018-12-22T07:27:09.097Z,12.00
2018-12-22T07:28:09.087Z,16.00
2018-12-22T07:29:09.080Z,16.00
2018-12-22T07:30:09.083Z,12.00
2018-12-22T07:31:09.048Z,16.00
2018-12-22T07:32:09.048Z,16.00
2018-12-22T07:33:09.034Z,16.00
2018-12-22T07:34:09.033Z,20.00
2018-12-22T07:35:09.021Z,20.00
2018-12-22T07:36:09.015Z,20.00
2018-12-22T07:37:08.988Z,32.00
2018-12-22T07:38:09.130Z,36.00
2018-12-22T07:39:08.967Z,32.00
2018-12-22T07:40:09.077Z,36.00
2018-12-22T07:41:08.937Z,36.00
2018-12-22T07:42:08.948Z,40.00
2018-12-22T07:43:08.932Z,44.00
2018-12-22T07:44:08.910Z,44.00
2018-12-22T07:45:08.923Z,36.00
2018-12-22T07:46:08.888Z,40.00
2018-12-22T07:47:08.871Z,32.00
2018-12-22T07:48:08.866Z,32.00
2018-12-22T07:49:08.848Z,28.00
2018-12-22T07:50:08.855Z,24.00
2018-12-22T07:51:08.830Z,32.00
2018-12-22T07:52:08.823Z,32.00
2018-12-22T07:53:08.805Z,28.00
2018-12-22T07:54:08.804Z,24.00
2018-12-22T07:55:08.793Z,24.00
2018-12-22T07:56:08.769Z,32.00
2018-12-22T07:57:08.760Z,28.00
2018-12-22T07:58:08.749Z,24.00
2018-12-22T07:59:08.736Z,24.00
2018-12-22T08:00:08.750Z,24.00
2018-12-22T08:01:08.714Z,24.00
2018-12-22T08:02:08.704Z,28.00
2018-12-22T08:03:08.694Z,28.00
2018-12-22T08:04:08.674Z,36.00
2018-12-22T08:05:08.686Z,36.00
2018-12-22T08:06:08.657Z,44.00
2018-12-22T08:07:08.638Z,52.00
2018-12-22T08:08:08.629Z,88.00
2018-12-22T08:09:08.618Z,84.00
2018-12-22T08:10:08.639Z,64.00
2018-12-22T08:11:08.601Z,60.00
2018-12-22T08:12:08.586Z,64.00
2018-12-22T08:13:08.585Z,72.00
2018-12-22T08:14:08.665Z,64.00
2018-12-22T08:15:08.573Z,112.00
2018-12-22T08:16:08.537Z,80.00
2018-12-22T08:17:08.531Z,88.00
2018-12-22T08:18:08.515Z,88.00
2018-12-22T08:19:08.505Z,80.00
2018-12-22T08:20:08.500Z,96.00
2018-12-22T08:21:08.500Z,96.00
2018-12-22T08:22:08.642Z,120.00
2018-12-22T08:23:08.469Z,92.00
2018-12-22T08:24:08.459Z,152.00
2018-12-22T08:25:08.433Z,100.00
2018-12-22T08:26:08.451Z,124.00
2018-12-22T08:27:08.411Z,120.00
2018-12-22T08:28:08.407Z,108.00
2018-12-22T08:29:08.389Z,84.00
2018-12-22T08:30:08.377Z,84.00
2018-12-22T08:31:08.387Z,80.00
2018-12-22T08:32:08.370Z,104.00
2018-12-22T08:33:08.342Z,164.00
2018-12-22T08:34:08.331Z,276.00
2018-12-22T08:35:08.324Z,272.00
2018-12-22T08:36:08.348Z,292.00
2018-12-22T08:37:08.297Z,276.00
2018-12-22T08:38:08.286Z,188.00
2018-12-22T08:39:08.403Z,208.00
2018-12-22T08:40:08.265Z,168.00
2018-12-22T08:41:08.266Z,108.00
2018-12-22T08:42:08.242Z,96.00
2018-12-22T08:43:08.238Z,104.00
2018-12-22T08:44:08.213Z,112.00
2018-12-22T08:45:08.210Z,100.00
2018-12-22T08:46:08.230Z,104.00
2018-12-22T08:47:08.186Z,80.00
2018-12-22T08:48:08.172Z,72.00
2018-12-22T08:49:08.169Z,84.00
2018-12-22T08:50:09.384Z,148.00
2018-12-22T08:51:08.163Z,204.00
2018-12-22T08:52:08.130Z,220.00
2018-12-22T08:53:08.109Z,176.00
2018-12-22T08:54:08.114Z,168.00
2018-12-22T08:55:08.093Z,152.00
2018-12-22T08:56:08.098Z,232.00
2018-12-22T08:57:08.067Z,260.00
2018-12-22T08:58:08.057Z,284.00
2018-12-22T08:59:08.049Z,320.00
2018-12-22T09:00:08.036Z,408.00
2018-12-22T09:01:08.046Z,432.00
2018-12-22T09:02:08.012Z,440.00
2018-12-22T09:03:07.997Z,336.00
2018-12-22T09:04:07.992Z,284.00
2018-12-22T09:05:07.981Z,272.00
2018-12-22T09:06:07.992Z,308.00
2018-12-22T09:07:07.967Z,288.00
2018-12-22T09:08:07.941Z,224.00
2018-12-22T09:09:07.929Z,196.00
2018-12-22T09:10:07.924Z,224.00
2018-12-22T09:11:07.905Z,176.00
2018-12-22T09:12:07.922Z,156.00
2018-12-22T09:13:07.884Z,156.00
2018-12-22T09:14:07.875Z,200.00
2018-12-22T09:15:07.865Z,108.00
2018-12-22T09:16:07.852Z,132.00
2018-12-22T09:17:07.850Z,92.00
2018-12-22T09:18:07.829Z,104.00
2018-12-22T09:19:07.816Z,108.00
2018-12-22T09:20:07.802Z,136.00
2018-12-22T09:21:07.795Z,124.00
2018-12-22T09:22:07.808Z,120.00
2018-12-22T09:23:07.785Z,140.00
2018-12-22T09:24:07.767Z,188.00
2018-12-22T09:25:07.757Z,176.00
2018-12-22T09:26:08.612Z,164.00
2018-12-22T09:27:07.751Z,148.00
2018-12-22T09:28:07.710Z,140.00
2018-12-22T09:29:07.701Z,124.00
2018-12-22T09:30:07.686Z,108.00
2018-12-22T09:31:07.675Z,96.00
2018-12-22T09:32:07.697Z,88.00
2018-12-22T09:33:07.652Z,80.00
2018-12-22T09:34:13.284Z,72.00
2018-12-22T09:35:08.636Z,76.00
2018-12-22T09:36:07.617Z,68.00
2018-12-22T09:37:07.627Z,64.00
2018-12-22T09:38:07.602Z,60.00
2018-12-22T09:39:07.657Z,60.00
2018-12-22T09:40:07.575Z,64.00
2018-12-22T09:41:07.559Z,64.00
2018-12-22T09:42:07.547Z,56.00
2018-12-22T09:43:07.556Z,56.00
2018-12-22T09:44:07.532Z,48.00
2018-12-22T09:45:07.508Z,48.00
2018-12-22T09:46:07.502Z,40.00
2018-12-22T09:47:07.631Z,40.00
2018-12-22T09:48:08.497Z,44.00
2018-12-22T09:49:07.469Z,52.00
2018-12-22T09:50:07.455Z,44.00
2018-12-22T09:51:07.451Z,40.00
2018-12-22T09:52:07.430Z,44.00
2018-12-22T09:53:07.577Z,40.00
2018-12-22T09:54:07.420Z,48.00
2018-12-22T09:55:07.398Z,48.00
2018-12-22T09:56:07.391Z,52.00
2018-12-22T09:57:07.402Z,64.00
2018-12-22T09:58:07.389Z,60.00
2018-12-22T09:59:07.354Z,80.00
2018-12-22T10:00:07.351Z,108.00
2018-12-22T10:01:09.374Z,96.00
2018-12-22T10:02:07.323Z,96.00
2018-12-22T10:03:07.341Z,116.00
2018-12-22T10:04:07.321Z,164.00
2018-12-22T10:05:07.300Z,184.00
2018-12-22T10:06:07.276Z,192.00
2018-12-22T10:07:07.259Z,188.00
2018-12-22T10:08:07.278Z,204.00
2018-12-22T10:09:07.241Z,284.00
2018-12-22T10:10:07.224Z,324.00
2018-12-22T10:11:07.219Z,440.00
2018-12-22T10:12:07.199Z,588.00
2018-12-22T10:13:07.215Z,564.00
2018-12-22T10:14:07.185Z,452.00
2018-12-22T10:15:07.172Z,360.00
2018-12-22T10:16:07.163Z,392.00
2018-12-22T10:17:07.149Z,332.00
2018-12-22T10:18:07.155Z,464.00
2018-12-22T10:19:07.123Z,384.00
2018-12-22T10:20:07.107Z,316.00
2018-12-22T10:21:07.103Z,428.00
2018-12-22T10:22:07.092Z,356.00
2018-12-22T10:23:07.107Z,364.00
2018-12-22T10:24:07.068Z,264.00
2018-12-22T10:25:07.055Z,260.00
2018-12-22T10:26:07.040Z,240.00
2018-12-22T10:27:07.039Z,208.00
2018-12-22T10:28:07.046Z,224.00
2018-12-22T10:29:07.005Z,228.00
2018-12-22T10:30:06.990Z,208.00
2018-12-22T10:31:06.984Z,192.00
2018-12-22T10:32:06.978Z,236.00
2018-12-22T10:33:06.986Z,224.00
2018-12-22T10:34:06.948Z,224.00
2018-12-22T10:35:06.938Z,224.00
2018-12-22T10:36:06.927Z,220.00
2018-12-22T10:37:06.914Z,252.00
2018-12-22T10:38:06.920Z,248.00
2018-12-22T10:39:06.912Z,264.00
2018-12-22T10:40:06.883Z,268.00
2018-12-22T10:41:06.867Z,280.00
2018-12-22T10:42:06.858Z,348.00
2018-12-22T10:43:06.839Z,296.00
2018-12-22T10:44:06.848Z,352.00
2018-12-22T10:45:06.829Z,368.00
2018-12-22T10:46:06.816Z,296.00
2018-12-22T10:47:06.799Z,308.00
2018-12-22T10:48:06.788Z,260.00
2018-12-22T10:49:06.800Z,252.00
2018-12-22T10:50:06.764Z,292.00
2018-12-22T10:51:06.753Z,304.00
2018-12-22T10:52:06.732Z,304.00
2018-12-22T10:53:06.745Z,272.00
2018-12-22T10:54:06.737Z,260.00
2018-12-22T10:55:06.702Z,292.00
2018-12-22T10:56:06.693Z,272.00
2018-12-22T10:57:06.683Z,304.00
2018-12-22T10:58:06.666Z,292.00
2018-12-22T10:59:06.700Z,264.00
2018-12-22T11:00:11.743Z,264.00
2018-12-22T11:01:06.651Z,276.00
2018-12-22T11:02:06.622Z,296.00
2018-12-22T11:03:06.616Z,336.00
2018-12-22T11:04:06.621Z,348.00
2018-12-22T11:05:06.594Z,408.00
2018-12-22T11:06:06.580Z,524.00
2018-12-22T11:07:06.578Z,632.00
2018-12-22T11:08:06.554Z,484.00
2018-12-22T11:09:06.567Z,456.00
2018-12-22T11:10:06.535Z,360.00
2018-12-22T11:11:06.519Z,376.00
2018-12-22T11:12:06.516Z,316.00
2018-12-22T11:13:06.500Z,340.00
2018-12-22T11:14:06.503Z,400.00
2018-12-22T11:15:06.495Z,444.00
2018-12-22T11:16:06.458Z,452.00
2018-12-22T11:17:06.479Z,412.00
2018-12-22T11:18:06.451Z,348.00
2018-12-22T11:19:06.447Z,352.00
2018-12-22T11:20:06.423Z,296.00
2018-12-22T11:21:06.407Z,360.00
2018-12-22T11:22:06.400Z,312.00
2018-12-22T11:23:06.399Z,324.00
2018-12-22T11:24:06.392Z,452.00
2018-12-22T11:25:06.363Z,984.00
2018-12-22T11:26:06.347Z,1344.00
2018-12-22T11:27:06.351Z,1364.00
2018-12-22T11:28:06.326Z,1376.00
2018-12-22T11:29:06.338Z,1384.00
2018-12-22T11:30:06.325Z,1408.00
2018-12-22T11:31:06.296Z,1444.00
2018-12-22T11:32:06.282Z,1472.00
2018-12-22T11:33:06.263Z,1432.00
2018-12-22T11:34:06.299Z,1532.00
2018-12-22T11:35:06.250Z,1540.00
2018-12-22T11:36:06.236Z,1540.00
2018-12-22T11:37:06.220Z,1176.00
2018-12-22T11:38:06.207Z,800.00
2018-12-22T11:39:06.193Z,464.00
2018-12-22T11:40:06.214Z,400.00
2018-12-22T11:41:06.178Z,348.00
2018-12-22T11:42:06.170Z,336.00
2018-12-22T11:43:06.154Z,292.00
2018-12-22T11:44:06.140Z,224.00
2018-12-22T11:45:06.148Z,168.00
2018-12-22T11:46:06.117Z,268.00
2018-12-22T11:47:06.118Z,288.00
2018-12-22T11:48:06.093Z,476.00
2018-12-22T11:49:06.096Z,596.00
2018-12-22T11:50:06.089Z,448.00
2018-12-22T11:51:06.058Z,328.00
2018-12-22T11:52:06.049Z,240.00
2018-12-22T11:53:06.038Z,308.00
2018-12-22T11:54:06.024Z,304.00
2018-12-22T11:55:06.041Z,300.00
2018-12-22T11:56:05.999Z,296.00
2018-12-22T11:57:05.996Z,240.00
2018-12-22T11:58:05.984Z,420.00
2018-12-22T11:59:05.968Z,744.00
2018-12-22T12:00:05.985Z,1224.00
2018-12-22T12:01:06.010Z,1180.00
2018-12-22T12:02:09.928Z,1200.00
2018-12-22T12:03:05.923Z,764.00
2018-12-22T12:04:05.906Z,768.00
2018-12-22T12:05:05.913Z,1072.00
2018-12-22T12:06:05.885Z,752.00
2018-12-22T12:07:05.879Z,984.00
2018-12-22T12:08:05.861Z,792.00
2018-12-22T12:09:05.846Z,568.00
2018-12-22T12:10:05.880Z,528.00
2018-12-22T12:11:05.954Z,288.00
2018-12-22T12:12:05.813Z,340.00
2018-12-22T12:13:05.805Z,244.00
2018-12-22T12:14:05.793Z,220.00
2018-12-22T12:15:05.785Z,224.00
2018-12-22T12:16:05.794Z,264.00
2018-12-22T12:17:05.757Z,188.00
2018-12-22T12:18:05.751Z,192.00
2018-12-22T12:19:05.740Z,248.00
2018-12-22T12:20:05.719Z,208.00
2018-12-22T12:21:05.724Z,176.00
2018-12-22T12:22:05.703Z,188.00
2018-12-22T12:23:05.697Z,208.00
2018-12-22T12:24:05.678Z,224.00
2018-12-22T12:25:05.666Z,176.00
2018-12-22T12:26:05.672Z,200.00
2018-12-22T12:27:05.643Z,196.00
2018-12-22T12:28:05.629Z,164.00
2018-12-22T12:29:05.619Z,148.00
2018-12-22T12:30:05.610Z,196.00
2018-12-22T12:31:05.625Z,172.00
2018-12-22T12:32:05.597Z,232.00
2018-12-22T12:33:05.591Z,240.00
2018-12-22T12:34:05.562Z,216.00
2018-12-22T12:35:05.555Z,340.00
2018-12-22T12:36:05.553Z,324.00
2018-12-22T12:37:05.553Z,312.00
2018-12-22T12:38:05.523Z,360.00
2018-12-22T12:39:05.523Z,380.00
2018-12-22T12:40:05.496Z,356.00
2018-12-22T12:41:05.511Z,324.00
2018-12-22T12:42:05.471Z,288.00
2018-12-22T12:43:05.471Z,276.00
2018-12-22T12:44:05.520Z,348.00
2018-12-22T12:45:05.440Z,388.00
2018-12-22T12:46:05.451Z,324.00
2018-12-22T12:47:05.418Z,496.00
2018-12-22T12:48:05.405Z,532.00
2018-12-22T12:49:05.388Z,448.00
2018-12-22T12:50:05.378Z,420.00
2018-12-22T12:51:05.568Z,444.00
2018-12-22T12:52:05.468Z,468.00
2018-12-22T12:53:09.527Z,540.00
2018-12-22T12:54:05.347Z,404.00
2018-12-22T12:55:05.325Z,352.00
2018-12-22T12:56:05.365Z,372.00
2018-12-22T12:57:05.299Z,396.00
2018-12-22T12:58:05.287Z,264.00